createdAt,value
2023-12-23T00:00:55.483Z,6.03
2023-12-23T00:03:22.503Z,3.97
2023-12-23T00:05:49.536Z,3.60
2023-12-23T00:08:16.563Z,4.90
2023-12-23T00:10:43.609Z,4.17
2023-12-23T00:13:10.517Z,3.87
2023-12-23T00:15:37.494Z,6.50
2023-12-23T00:18:05.126Z,4.57
2023-12-23T00:20:32.377Z,5.63
2023-12-23T00:22:59.576Z,5.50
2023-12-23T00:25:26.525Z,5.03
2023-12-23T00:27:53.545Z,4.40
2023-12-23T00:30:20.551Z,6.10
2023-12-23T00:32:48.183Z,6.70
2023-12-23T00:35:15.218Z,7.83
2023-12-23T00:37:42.667Z,9.83
2023-12-23T00:40:09.835Z,7.70
2023-12-23T00:42:37.725Z,5.57
2023-12-23T00:45:06.709Z,11.57
2023-12-23T00:47:37.419Z,13.57
2023-12-23T00:50:06.247Z,7.73
2023-12-23T00:52:33.426Z,8.37
2023-12-23T00:55:01.123Z,10.43
2023-12-23T00:57:29.035Z,9.13
2023-12-23T00:59:59.146Z,6.00
2023-12-23T01:02:26.203Z,2.30
2023-12-23T01:07:22.899Z,3.47
2023-12-23T01:09:49.806Z,4.00
2023-12-23T01:12:16.843Z,1.73
2023-12-23T01:14:45.789Z,2.80
2023-12-23T01:17:12.938Z,3.20
2023-12-23T01:19:39.961Z,3.20
2023-12-23T01:22:06.944Z,2.40
2023-12-23T01:24:33.934Z,2.87
2023-12-23T01:27:00.838Z,3.73
2023-12-23T01:29:27.872Z,4.57
2023-12-23T01:31:54.894Z,4.10
2023-12-23T01:34:21.857Z,5.13
2023-12-23T01:36:48.797Z,2.40
2023-12-23T01:39:15.726Z,3.33
2023-12-23T01:41:42.847Z,4.37
2023-12-23T01:44:09.785Z,5.27
2023-12-23T01:46:37.147Z,2.73
2023-12-23T01:49:05.676Z,2.83
2023-12-23T01:51:33.829Z,2.40
2023-12-23T01:54:08.885Z,2.93
2023-12-23T01:56:36.704Z,1.93
2023-12-23T01:59:04.877Z,1.57
2023-12-23T02:01:36.068Z,3.10
2023-12-23T02:04:03.611Z,3.17
2023-12-23T02:06:30.508Z,1.90
2023-12-23T02:08:57.662Z,1.80
2023-12-23T02:11:55.158Z,2.90
2023-12-23T02:14:48.918Z,2.07
2023-12-23T02:17:16.434Z,1.70
2023-12-23T02:19:44.668Z,4.13
2023-12-23T02:22:11.687Z,2.90
2023-12-23T02:24:39.558Z,4.73
2023-12-23T02:27:11.966Z,3.20
2023-12-23T02:29:41.577Z,5.17
2023-12-23T02:32:10.516Z,2.80
2023-12-23T02:34:38.123Z,4.37
2023-12-23T02:37:05.172Z,4.60
2023-12-23T02:39:32.055Z,3.30
2023-12-23T02:41:59.275Z,4.03
2023-12-23T02:44:26.175Z,4.27
2023-12-23T02:46:53.164Z,4.90
2023-12-23T02:49:20.069Z,4.33
2023-12-23T02:51:46.965Z,4.97
2023-12-23T02:54:13.843Z,5.53
2023-12-23T02:56:40.859Z,7.03
2023-12-23T02:59:07.991Z,7.37
2023-12-23T03:01:35.005Z,4.03
2023-12-23T03:04:01.958Z,4.20
2023-12-23T03:06:28.874Z,5.80
2023-12-23T03:08:55.776Z,4.07
2023-12-23T03:11:22.710Z,5.73
2023-12-23T03:13:49.646Z,4.00
2023-12-23T03:16:18.199Z,4.77
2023-12-23T03:18:46.642Z,5.17
2023-12-23T03:21:13.685Z,7.37
2023-12-23T03:23:40.661Z,5.27
2023-12-23T03:26:08.971Z,4.23
2023-12-23T03:28:36.003Z,3.33
2023-12-23T03:31:03.005Z,4.80
2023-12-23T03:33:29.925Z,4.70
2023-12-23T03:36:00.253Z,2.83
2023-12-23T03:38:27.806Z,5.53
2023-12-23T03:40:55.010Z,5.17
2023-12-23T03:43:21.990Z,4.53
2023-12-23T03:45:48.944Z,6.07
2023-12-23T03:48:16.034Z,4.13
2023-12-23T03:50:43.052Z,7.47
2023-12-23T03:53:10.115Z,7.17
2023-12-23T03:55:39.701Z,5.80
2023-12-23T03:58:08.106Z,3.67
2023-12-23T04:00:35.146Z,6.60
2023-12-23T04:03:02.160Z,6.37
2023-12-23T04:05:29.181Z,3.40
2023-12-23T04:07:56.338Z,4.90
2023-12-23T04:10:23.353Z,5.43
2023-12-23T04:12:51.347Z,3.67
2023-12-23T04:15:18.496Z,4.80
2023-12-23T04:17:45.518Z,5.60
2023-12-23T04:20:12.650Z,4.43
2023-12-23T04:22:39.641Z,3.87
2023-12-23T04:25:06.910Z,3.97
2023-12-23T04:27:34.073Z,6.10
2023-12-23T04:30:01.030Z,5.37
2023-12-23T04:32:29.202Z,3.73
2023-12-23T04:34:56.702Z,5.43
2023-12-23T04:37:26.382Z,4.17
2023-12-23T04:39:54.415Z,4.93
2023-12-23T04:42:21.905Z,3.77
2023-12-23T04:44:48.822Z,4.57
2023-12-23T04:47:15.888Z,4.40
2023-12-23T04:49:42.910Z,2.73
2023-12-23T04:52:10.132Z,3.30
2023-12-23T04:54:37.001Z,6.57
2023-12-23T04:57:04.146Z,4.63
2023-12-23T04:59:31.184Z,5.70
2023-12-23T05:01:58.087Z,5.57
2023-12-23T05:04:25.042Z,4.87
2023-12-23T05:06:51.985Z,3.57
2023-12-23T05:09:18.946Z,4.87
2023-12-23T05:11:45.843Z,3.87
2023-12-23T05:14:12.878Z,4.83
2023-12-23T05:16:39.772Z,5.43
2023-12-23T05:19:06.791Z,3.70
2023-12-23T05:21:33.743Z,2.63
2023-12-23T05:24:00.672Z,2.97
2023-12-23T05:26:27.584Z,2.73
2023-12-23T05:28:54.636Z,3.90
2023-12-23T05:31:21.549Z,3.00
2023-12-23T05:33:50.462Z,2.07
2023-12-23T05:36:17.382Z,2.97
2023-12-23T05:38:44.228Z,4.20
2023-12-23T05:41:11.172Z,4.13
2023-12-23T05:43:38.104Z,2.97
2023-12-23T05:46:05.145Z,4.53
2023-12-23T05:48:32.106Z,3.50
2023-12-23T05:50:59.064Z,3.13
2023-12-23T05:53:26.087Z,2.03
2023-12-23T05:55:53.267Z,2.47
2023-12-23T05:58:20.556Z,2.10
2023-12-23T06:00:47.528Z,2.00
2023-12-23T06:03:14.413Z,2.13
2023-12-23T06:05:41.510Z,2.00
2023-12-23T06:08:08.420Z,2.10
2023-12-23T06:10:47.181Z,4.27
2023-12-23T06:13:21.228Z,2.03
2023-12-23T06:15:48.150Z,3.03
2023-12-23T06:18:15.227Z,1.80
2023-12-23T06:20:42.206Z,2.47
2023-12-23T06:23:09.130Z,2.83
2023-12-23T06:25:36.057Z,3.23
2023-12-23T06:28:02.975Z,2.93
2023-12-23T06:30:29.925Z,3.90
2023-12-23T06:32:56.873Z,3.93
2023-12-23T06:35:24.026Z,2.90
2023-12-23T06:37:50.941Z,3.17
2023-12-23T06:40:18.028Z,2.57
2023-12-23T06:42:45.142Z,3.27
2023-12-23T06:45:13.659Z,1.70
2023-12-23T06:47:40.895Z,2.30
2023-12-23T06:50:08.212Z,2.00
2023-12-23T06:52:35.163Z,2.87
2023-12-23T06:55:02.246Z,1.40
2023-12-23T06:57:29.991Z,1.57
2023-12-23T06:59:59.737Z,3.27
2023-12-23T07:02:27.590Z,1.90
2023-12-23T07:04:54.589Z,1.10
2023-12-23T07:07:21.527Z,1.80
2023-12-23T07:09:55.230Z,1.10
2023-12-23T07:12:28.271Z,1.00
2023-12-23T07:14:55.484Z,0.80
2023-12-23T07:17:35.227Z,0.77
2023-12-23T07:20:12.549Z,0.80
2023-12-23T07:22:39.512Z,1.60
2023-12-23T07:25:06.851Z,0.70
2023-12-23T07:27:33.764Z,0.70
2023-12-23T07:30:00.672Z,1.10
2023-12-23T07:32:27.689Z,1.80
2023-12-23T07:34:54.676Z,1.03
2023-12-23T07:37:21.610Z,1.10
2023-12-23T07:39:48.577Z,0.93
2023-12-23T07:42:15.525Z,0.90
2023-12-23T07:44:42.387Z,1.00
2023-12-23T07:47:13.906Z,1.00
2023-12-23T07:49:41.099Z,2.20
2023-12-23T07:52:10.816Z,0.77
2023-12-23T07:54:37.792Z,1.07
2023-12-23T07:57:04.982Z,0.83
2023-12-23T07:59:31.853Z,0.80
2023-12-23T08:01:58.964Z,0.83
2023-12-23T08:04:26.074Z,1.87
2023-12-23T08:06:53.805Z,1.20
2023-12-23T08:09:22.063Z,1.37
2023-12-23T08:11:48.958Z,1.07
2023-12-23T08:14:15.891Z,0.90
2023-12-23T08:16:43.498Z,1.33
2023-12-23T08:19:10.432Z,1.53
2023-12-23T08:21:37.468Z,1.60
2023-12-23T08:24:05.278Z,2.13
2023-12-23T08:26:32.506Z,1.17
2023-12-23T08:28:59.518Z,1.67
2023-12-23T08:31:26.532Z,1.27
2023-12-23T08:33:53.548Z,0.80
2023-12-23T08:36:20.717Z,0.60
2023-12-23T08:38:47.880Z,0.73
2023-12-23T08:41:14.908Z,0.80
2023-12-23T08:43:41.901Z,0.90
2023-12-23T08:46:09.525Z,1.00
2023-12-23T08:48:36.629Z,0.90
2023-12-23T08:51:03.727Z,0.97
2023-12-23T08:53:30.658Z,1.80
2023-12-23T08:55:57.629Z,2.00
2023-12-23T08:58:26.395Z,0.80
2023-12-23T09:00:53.550Z,0.80
2023-12-23T09:03:20.636Z,1.27
2023-12-23T09:05:47.946Z,1.23
2023-12-23T09:08:15.278Z,1.17
2023-12-23T09:10:42.436Z,1.30
2023-12-23T09:13:09.903Z,2.57
2023-12-23T09:15:36.850Z,2.57
2023-12-23T09:18:06.110Z,1.70
2023-12-23T09:20:33.458Z,1.73
2023-12-23T09:23:00.517Z,1.50
2023-12-23T09:25:27.540Z,1.30
2023-12-23T09:27:54.614Z,1.30
2023-12-23T09:30:21.514Z,1.20
2023-12-23T09:32:48.510Z,1.70
2023-12-23T09:35:15.667Z,1.40
2023-12-23T09:37:42.732Z,1.57
2023-12-23T09:40:11.598Z,2.70
2023-12-23T09:42:38.523Z,1.20
2023-12-23T09:45:06.372Z,1.17
2023-12-23T09:47:33.691Z,0.80
2023-12-23T09:50:00.796Z,2.10
2023-12-23T09:52:30.297Z,1.03
2023-12-23T09:55:00.137Z,1.67
2023-12-23T09:57:28.338Z,1.37
2023-12-23T09:59:57.085Z,1.93
2023-12-23T10:02:24.248Z,1.50
2023-12-23T10:04:51.649Z,1.10
2023-12-23T10:07:18.692Z,0.93
2023-12-23T10:09:50.131Z,0.93
2023-12-23T10:12:17.279Z,1.40
2023-12-23T10:14:45.321Z,0.97
2023-12-23T10:17:12.637Z,1.17
2023-12-23T10:19:39.574Z,0.80
2023-12-23T10:22:07.615Z,1.50
2023-12-23T10:24:38.968Z,1.60
2023-12-23T10:27:06.299Z,1.93
2023-12-23T10:29:36.290Z,1.67
2023-12-23T10:32:06.044Z,1.97
2023-12-23T10:34:45.212Z,1.23
2023-12-23T10:37:13.109Z,2.10
2023-12-23T10:40:10.910Z,1.60
2023-12-23T10:42:40.338Z,1.90
2023-12-23T10:45:08.661Z,2.60
2023-12-23T10:47:36.812Z,2.30
2023-12-23T10:50:05.476Z,3.47
2023-12-23T10:52:33.828Z,4.33
2023-12-23T10:55:04.905Z,4.43
2023-12-23T10:57:33.673Z,4.77
2023-12-23T11:00:00.686Z,5.07
2023-12-23T11:02:33.015Z,4.80
2023-12-23T11:05:03.344Z,5.60
2023-12-23T11:07:39.091Z,3.33
2023-12-23T11:10:07.149Z,5.40
2023-12-23T11:12:35.186Z,3.83
2023-12-23T11:15:03.882Z,6.90
2023-12-23T11:17:31.854Z,5.03
2023-12-23T11:20:04.732Z,4.63
2023-12-23T11:22:38.695Z,9.13
2023-12-23T11:25:24.692Z,12.77
2023-12-23T11:27:51.826Z,8.10
2023-12-23T11:30:19.884Z,4.73
2023-12-23T11:32:47.407Z,3.40
2023-12-23T11:35:14.536Z,2.57
2023-12-23T11:37:58.526Z,1.80
2023-12-23T11:40:26.277Z,2.93
2023-12-23T11:42:53.978Z,3.30
2023-12-23T11:45:21.132Z,5.17
2023-12-23T11:47:49.233Z,3.20
2023-12-23T11:50:16.435Z,3.70
2023-12-23T11:52:45.704Z,2.93
2023-12-23T11:55:12.814Z,3.43
2023-12-23T11:57:39.875Z,2.73
2023-12-23T12:00:08.144Z,2.87
2023-12-23T12:02:35.354Z,2.40
2023-12-23T12:05:03.033Z,2.20
2023-12-23T12:07:30.890Z,1.50
2023-12-23T12:09:57.898Z,3.67
2023-12-23T12:12:24.847Z,6.77
2023-12-23T12:14:51.752Z,5.17
2023-12-23T12:17:19.000Z,2.97
2023-12-23T12:19:46.070Z,3.27
2023-12-23T12:22:13.123Z,4.73
2023-12-23T12:24:40.295Z,3.57
2023-12-23T12:27:07.230Z,1.80
2023-12-23T12:29:34.430Z,2.50
2023-12-23T12:32:01.420Z,1.77
2023-12-23T12:34:29.619Z,2.60
2023-12-23T12:36:57.768Z,2.60
2023-12-23T12:39:24.771Z,3.40
2023-12-23T12:41:52.628Z,5.13
2023-12-23T12:44:22.876Z,4.00
2023-12-23T12:46:55.452Z,3.00
2023-12-23T12:49:24.492Z,2.20
2023-12-23T12:51:54.666Z,1.90
2023-12-23T12:54:25.799Z,3.47
2023-12-23T12:56:52.768Z,1.57
2023-12-23T12:59:19.789Z,1.60
2023-12-23T13:01:46.793Z,1.40
2023-12-23T13:04:13.843Z,1.27
2023-12-23T13:06:40.746Z,1.07
2023-12-23T13:09:08.418Z,1.13
2023-12-23T13:11:35.578Z,0.90
2023-12-23T13:14:02.696Z,0.80
2023-12-23T13:16:29.694Z,1.03
2023-12-23T13:19:00.378Z,1.03
2023-12-23T13:21:29.062Z,1.03
2023-12-23T13:23:56.337Z,1.00
2023-12-23T13:26:23.529Z,1.20
2023-12-23T13:28:52.399Z,1.33
2023-12-23T13:31:21.385Z,1.00
2023-12-23T13:33:49.490Z,1.10
2023-12-23T13:36:16.446Z,1.20
2023-12-23T13:38:45.704Z,2.10
2023-12-23T13:41:16.650Z,1.40
2023-12-23T13:43:43.942Z,1.90
2023-12-23T13:46:10.955Z,1.83
2023-12-23T13:48:38.038Z,2.50
2023-12-23T13:51:06.039Z,1.57
2023-12-23T13:53:33.345Z,1.73
2023-12-23T13:56:00.444Z,1.97
2023-12-23T13:58:27.770Z,1.70
2023-12-23T14:00:55.747Z,1.33
2023-12-23T14:03:22.844Z,1.00
2023-12-23T14:05:50.043Z,0.90
2023-12-23T14:08:17.133Z,1.10
2023-12-23T14:10:48.114Z,1.10
2023-12-23T14:13:16.638Z,0.90
2023-12-23T14:15:44.275Z,1.20
2023-12-23T14:18:11.630Z,1.20
2023-12-23T14:20:38.655Z,1.43
2023-12-23T14:23:06.331Z,1.87
2023-12-23T14:25:34.341Z,1.30
2023-12-23T14:28:01.213Z,1.43
2023-12-23T14:30:28.508Z,1.50
2023-12-23T14:32:55.612Z,1.57
2023-12-23T14:35:23.351Z,1.50
2023-12-23T14:37:51.292Z,1.90
2023-12-23T14:40:19.469Z,1.37
2023-12-23T14:42:47.141Z,1.57
2023-12-23T14:45:14.182Z,1.10
2023-12-23T14:47:41.207Z,1.17
2023-12-23T14:50:08.820Z,0.87
2023-12-23T14:52:35.847Z,1.50
2023-12-23T14:55:02.798Z,0.90
2023-12-23T14:57:29.966Z,0.83
2023-12-23T14:59:56.935Z,0.90
2023-12-23T15:02:23.934Z,1.00
2023-12-23T15:04:51.542Z,0.93
2023-12-23T15:07:18.654Z,0.87
2023-12-23T15:09:45.602Z,1.10
2023-12-23T15:12:18.881Z,0.80
2023-12-23T15:14:47.147Z,1.10
2023-12-23T15:17:16.773Z,1.80
2023-12-23T15:19:43.904Z,0.90
2023-12-23T15:22:10.882Z,0.70
2023-12-23T15:24:37.833Z,1.73
2023-12-23T15:27:05.061Z,1.40
2023-12-23T15:29:32.214Z,1.20
2023-12-23T15:31:59.377Z,1.10
2023-12-23T15:34:26.386Z,1.00
2023-12-23T15:36:56.735Z,1.40
2023-12-23T15:39:24.526Z,1.50
2023-12-23T15:41:51.678Z,4.13
2023-12-23T15:44:18.672Z,3.50
2023-12-23T15:46:45.649Z,3.47
2023-12-23T15:49:19.201Z,2.77
2023-12-23T15:51:46.170Z,2.53
2023-12-23T15:54:13.130Z,3.47
2023-12-23T15:56:40.369Z,4.57
2023-12-23T15:59:07.630Z,4.43
2023-12-23T16:01:34.982Z,3.67
2023-12-23T16:04:02.421Z,4.53
2023-12-23T16:06:30.636Z,8.20
2023-12-23T16:08:57.722Z,4.03
2023-12-23T16:11:24.786Z,4.40
2023-12-23T16:13:51.925Z,6.80
2023-12-23T16:16:18.887Z,4.00
2023-12-23T16:18:45.978Z,2.80
2023-12-23T16:21:13.908Z,4.20
2023-12-23T16:23:41.055Z,3.67
2023-12-23T16:26:16.409Z,3.47
2023-12-23T16:28:45.990Z,3.53
2023-12-23T16:31:14.554Z,4.37
2023-12-23T16:33:42.656Z,7.43
2023-12-23T16:36:13.415Z,24.20
2023-12-23T16:38:40.622Z,11.83
2023-12-23T16:41:12.058Z,7.27
2023-12-23T16:43:39.872Z,10.00
2023-12-23T16:46:08.552Z,8.73
2023-12-23T16:48:35.687Z,8.40
2023-12-23T16:51:02.724Z,9.13
2023-12-23T16:53:29.754Z,7.43
2023-12-23T16:55:56.724Z,5.50
2023-12-23T16:58:23.684Z,3.60
2023-12-23T17:00:50.697Z,3.57
2023-12-23T17:03:18.331Z,3.60
2023-12-23T17:05:45.898Z,2.07
2023-12-23T17:08:13.132Z,1.67
2023-12-23T17:10:40.095Z,1.30
2023-12-23T17:13:07.351Z,1.50
2023-12-23T17:15:34.284Z,1.63
2023-12-23T17:18:01.590Z,2.33
2023-12-23T17:20:28.615Z,1.17
2023-12-23T17:22:56.141Z,2.77
2023-12-23T17:25:23.193Z,4.20
2023-12-23T17:27:50.110Z,10.03
2023-12-23T17:30:17.170Z,13.40
2023-12-23T17:32:44.498Z,8.10
2023-12-23T17:35:11.639Z,14.93
2023-12-23T17:37:38.637Z,8.80
2023-12-23T17:40:06.314Z,4.73
2023-12-23T17:42:33.170Z,4.30
2023-12-23T17:45:00.201Z,4.03
2023-12-23T17:47:27.524Z,2.60
2023-12-23T17:49:54.702Z,1.90
2023-12-23T17:52:21.642Z,1.90
2023-12-23T17:54:48.637Z,1.93
2023-12-23T17:57:16.514Z,2.27
2023-12-23T17:59:43.787Z,1.90
2023-12-23T18:02:10.968Z,1.80
2023-12-23T18:04:38.256Z,1.50
2023-12-23T18:07:05.251Z,1.50
2023-12-23T18:09:33.032Z,2.27
2023-12-23T18:12:00.001Z,2.47
2023-12-23T18:14:29.606Z,2.40
2023-12-23T18:16:56.906Z,2.63
2023-12-23T18:19:24.008Z,4.93
2023-12-23T18:21:50.956Z,3.70
2023-12-23T18:24:19.347Z,3.33
2023-12-23T18:26:46.390Z,3.40
2023-12-23T18:29:13.643Z,2.90
2023-12-23T18:31:40.594Z,4.43
2023-12-23T18:34:07.784Z,4.10
2023-12-23T18:36:34.798Z,3.27
2023-12-23T18:39:01.718Z,2.93
2023-12-23T18:41:28.907Z,2.70
2023-12-23T18:43:55.866Z,2.20
2023-12-23T18:46:23.446Z,2.50
2023-12-23T18:48:50.508Z,3.40
2023-12-23T18:51:17.439Z,2.10
2023-12-23T18:53:44.965Z,2.00
2023-12-23T18:56:14.291Z,2.37
2023-12-23T18:58:42.600Z,2.30
2023-12-23T19:01:09.556Z,2.10
2023-12-23T19:03:36.466Z,3.67
2023-12-23T19:06:04.365Z,2.80
2023-12-23T19:08:32.372Z,2.70
2023-12-23T19:10:59.542Z,2.37
2023-12-23T19:13:28.464Z,2.40
2023-12-23T19:15:55.639Z,2.40
2023-12-23T19:18:22.728Z,2.20
2023-12-23T19:20:49.715Z,1.97
2023-12-23T19:23:16.725Z,2.10
2023-12-23T19:25:45.419Z,1.90
2023-12-23T19:28:12.446Z,1.60
2023-12-23T19:30:39.584Z,1.47
2023-12-23T19:33:07.846Z,1.80
2023-12-23T19:35:34.838Z,1.77
2023-12-23T19:38:02.459Z,1.50
2023-12-23T19:40:30.157Z,1.30
2023-12-23T19:42:57.175Z,1.40
2023-12-23T19:45:25.004Z,2.13
2023-12-23T19:47:52.218Z,1.40
2023-12-23T19:50:20.323Z,1.50
2023-12-23T19:52:47.329Z,1.83
2023-12-23T19:55:14.275Z,1.60
2023-12-23T19:57:41.182Z,1.70
2023-12-23T20:00:10.622Z,1.37
2023-12-23T20:02:37.954Z,1.73
2023-12-23T20:05:05.226Z,1.40
2023-12-23T20:07:32.248Z,1.40
2023-12-23T20:09:59.118Z,1.33
2023-12-23T20:12:26.211Z,1.30
2023-12-23T20:14:53.104Z,1.40
2023-12-23T20:17:20.063Z,1.53
2023-12-23T20:19:46.974Z,1.57
2023-12-23T20:22:13.865Z,1.70
2023-12-23T20:24:40.726Z,1.80
2023-12-23T20:27:07.645Z,1.67
2023-12-23T20:29:36.000Z,1.40
2023-12-23T20:32:04.539Z,1.60
2023-12-23T20:34:31.607Z,1.57
2023-12-23T20:37:05.760Z,1.40
2023-12-23T20:39:35.391Z,1.50
2023-12-23T20:42:03.007Z,1.40
2023-12-23T20:44:31.908Z,1.50
2023-12-23T20:46:59.339Z,2.03
2023-12-23T20:49:27.162Z,1.90
2023-12-23T20:51:54.215Z,1.50
2023-12-23T20:54:21.778Z,1.87
2023-12-23T20:56:48.722Z,1.20
2023-12-23T20:59:15.788Z,1.40
2023-12-23T21:01:42.793Z,1.60
2023-12-23T21:04:09.699Z,1.50
2023-12-23T21:06:37.062Z,1.33
2023-12-23T21:09:08.515Z,1.37
2023-12-23T21:11:35.965Z,1.50
2023-12-23T21:14:02.878Z,1.40
2023-12-23T21:16:29.902Z,1.10
2023-12-23T21:18:56.926Z,1.30
2023-12-23T21:21:23.974Z,1.40
2023-12-23T21:23:51.050Z,1.47
2023-12-23T21:26:21.169Z,1.60
2023-12-23T21:28:48.329Z,1.30
2023-12-23T21:31:16.185Z,1.50
2023-12-23T21:33:43.175Z,2.30
2023-12-23T21:36:10.544Z,1.40
2023-12-23T21:38:37.759Z,1.60
2023-12-23T21:41:04.777Z,1.40
2023-12-23T21:43:31.746Z,1.20
2023-12-23T21:45:58.670Z,1.20
2023-12-23T21:48:25.778Z,1.50
2023-12-23T21:50:55.371Z,1.50
2023-12-23T21:53:23.854Z,1.40
2023-12-23T21:55:51.411Z,1.43
2023-12-23T21:58:18.534Z,2.30
2023-12-23T22:00:47.128Z,1.50
2023-12-23T22:03:14.571Z,1.20
2023-12-23T22:05:41.889Z,1.20
2023-12-23T22:08:08.951Z,1.13
2023-12-23T22:10:36.121Z,1.10
2023-12-23T22:13:02.993Z,1.40
2023-12-23T22:15:29.899Z,1.53
2023-12-23T22:17:56.899Z,1.10
2023-12-23T22:20:25.177Z,1.00
2023-12-23T22:22:52.513Z,1.07
2023-12-23T22:25:21.188Z,1.20
2023-12-23T22:27:48.267Z,1.20
2023-12-23T22:30:15.461Z,1.10
2023-12-23T22:32:42.978Z,1.20
2023-12-23T22:35:10.398Z,1.00
2023-12-23T22:37:37.469Z,0.90
2023-12-23T22:40:04.817Z,1.00
2023-12-23T22:42:31.740Z,1.30
2023-12-23T22:44:58.703Z,1.00
2023-12-23T22:47:27.857Z,0.90
2023-12-23T22:49:54.838Z,1.17
2023-12-23T22:52:21.803Z,1.10
2023-12-23T22:54:48.887Z,2.13
2023-12-23T22:57:15.909Z,2.30
2023-12-23T22:59:42.971Z,1.37
2023-12-23T23:02:09.920Z,2.10
2023-12-23T23:04:36.884Z,1.30
2023-12-23T23:07:04.581Z,1.20
2023-12-23T23:09:31.538Z,1.40
2023-12-23T23:11:58.503Z,1.53
2023-12-23T23:14:25.633Z,1.73
2023-12-23T23:16:52.825Z,1.00
2023-12-23T23:19:20.053Z,1.83
2023-12-23T23:21:47.091Z,1.00
2023-12-23T23:24:13.937Z,1.40
2023-12-23T23:26:40.845Z,1.70
2023-12-23T23:29:08.402Z,1.43
2023-12-23T23:31:35.450Z,1.63
2023-12-23T23:34:02.404Z,1.40
2023-12-23T23:36:29.310Z,0.90
2023-12-23T23:38:56.297Z,1.03
2023-12-23T23:41:23.377Z,1.00
2023-12-23T23:43:50.315Z,1.90
2023-12-23T23:46:17.761Z,1.10
2023-12-23T23:48:45.504Z,1.20
2023-12-23T23:51:21.656Z,1.00
2023-12-23T23:53:52.918Z,2.57
2023-12-23T23:56:21.103Z,1.57
2023-12-23T23:58:48.885Z,1.10
